createdAt,value
2022-10-16T00:00:48.024Z,3.38
2022-10-16T00:03:15.002Z,2.58
2022-10-16T00:05:45.248Z,3.35
2022-10-16T00:08:12.538Z,3.35
2022-10-16T00:10:39.116Z,3.28
2022-10-16T00:13:06.016Z,2.42
2022-10-16T00:15:37.400Z,3.10
2022-10-16T00:18:05.178Z,2.55
2022-10-16T00:20:35.027Z,4.75
2022-10-16T00:23:01.462Z,2.97
2022-10-16T00:25:27.942Z,2.28
2022-10-16T00:27:54.257Z,2.83
2022-10-16T00:30:20.706Z,2.65
2022-10-16T00:32:47.154Z,3.30
2022-10-16T00:35:13.557Z,2.50
2022-10-16T00:37:39.885Z,2.97
2022-10-16T00:40:06.760Z,2.83
2022-10-16T00:42:33.056Z,3.67
2022-10-16T00:44:59.445Z,5.30
2022-10-16T00:47:32.018Z,4.55
2022-10-16T00:50:09.187Z,2.55
2022-10-16T00:52:35.974Z,2.42
2022-10-16T00:55:05.523Z,2.10
2022-10-16T00:57:31.907Z,2.22
2022-10-16T00:59:59.694Z,2.30
2022-10-16T01:02:26.380Z,2.35
2022-10-16T01:04:54.992Z,2.40
2022-10-16T01:07:33.366Z,2.38
2022-10-16T01:10:08.749Z,2.00
2022-10-16T01:12:50.137Z,2.22
2022-10-16T01:15:32.027Z,2.40
2022-10-16T01:20:38.710Z,2.42
2022-10-16T01:23:36.789Z,1.80
2022-10-16T01:26:09.127Z,2.05
2022-10-16T01:28:58.315Z,2.00
2022-10-16T01:31:30.083Z,2.05
2022-10-16T01:36:58.158Z,2.00
2022-10-16T01:39:29.492Z,1.75
2022-10-16T01:42:02.228Z,2.55
2022-10-16T01:44:34.660Z,2.10
2022-10-16T01:47:01.719Z,2.15
2022-10-16T01:49:33.252Z,1.95
2022-10-16T01:52:03.166Z,1.90
2022-10-16T01:54:33.107Z,2.10
2022-10-16T01:57:00.273Z,2.22
2022-10-16T01:59:32.323Z,2.58
2022-10-16T02:02:07.279Z,2.15
2022-10-16T02:04:45.021Z,1.98
2022-10-16T02:07:12.147Z,1.98
2022-10-16T02:09:39.318Z,1.92
2022-10-16T02:12:13.486Z,2.10
2022-10-16T02:14:40.781Z,2.35
2022-10-16T02:17:18.439Z,2.03
2022-10-16T02:19:48.001Z,2.28
2022-10-16T02:22:29.166Z,1.90
2022-10-16T02:25:02.438Z,2.20
2022-10-16T02:27:36.467Z,1.83
2022-10-16T02:30:25.952Z,1.80
2022-10-16T02:32:54.516Z,1.55
2022-10-16T02:35:23.686Z,1.45
2022-10-16T02:37:52.139Z,1.88
2022-10-16T02:40:22.805Z,1.40
2022-10-16T02:42:53.445Z,1.70
2022-10-16T02:45:20.394Z,1.38
2022-10-16T02:47:46.871Z,1.95
2022-10-16T02:50:13.238Z,1.88
2022-10-16T02:52:39.778Z,1.83
2022-10-16T02:55:06.450Z,1.55
2022-10-16T02:57:32.908Z,1.60
2022-10-16T02:59:59.414Z,1.83
2022-10-16T03:02:26.079Z,1.27
2022-10-16T03:04:52.396Z,1.30
2022-10-16T03:07:18.744Z,1.50
2022-10-16T03:09:45.055Z,1.52
2022-10-16T03:12:12.912Z,1.17
2022-10-16T03:14:40.775Z,1.20
2022-10-16T03:17:07.337Z,1.15
2022-10-16T03:19:33.640Z,1.20
2022-10-16T03:21:59.984Z,1.17
2022-10-16T03:24:26.299Z,1.20
2022-10-16T03:26:52.608Z,1.25
2022-10-16T03:29:18.974Z,1.20
2022-10-16T03:31:45.362Z,1.10
2022-10-16T03:34:11.751Z,1.38
2022-10-16T03:36:38.112Z,1.35
2022-10-16T03:39:04.441Z,1.38
2022-10-16T03:41:30.847Z,1.13
2022-10-16T03:43:57.342Z,1.70
2022-10-16T03:46:23.672Z,1.50
2022-10-16T03:48:50.189Z,1.63
2022-10-16T03:51:16.551Z,1.40
2022-10-16T03:53:42.897Z,1.60
2022-10-16T03:56:09.368Z,1.85
2022-10-16T03:58:35.746Z,1.58
2022-10-16T04:01:02.132Z,1.40
2022-10-16T04:03:28.488Z,1.60
2022-10-16T04:05:55.302Z,1.55
2022-10-16T04:08:22.053Z,1.52
2022-10-16T04:10:48.392Z,1.52
2022-10-16T04:13:14.918Z,1.50
2022-10-16T04:15:41.698Z,1.67
2022-10-16T04:18:08.131Z,1.48
2022-10-16T04:20:34.794Z,1.40
2022-10-16T04:23:01.450Z,1.83
2022-10-16T04:25:27.974Z,1.65
2022-10-16T04:27:55.308Z,1.77
2022-10-16T04:30:22.800Z,1.80
2022-10-16T04:32:52.829Z,1.60
2022-10-16T04:35:21.253Z,1.63
2022-10-16T04:37:47.922Z,1.80
2022-10-16T04:40:14.612Z,1.92
2022-10-16T04:42:41.673Z,1.58
2022-10-16T04:45:11.984Z,1.55
2022-10-16T04:47:41.505Z,1.60
2022-10-16T04:50:08.589Z,2.20
2022-10-16T04:55:06.699Z,1.98
2022-10-16T04:57:34.214Z,1.48
2022-10-16T05:00:00.715Z,1.38
2022-10-16T05:02:27.179Z,1.30
2022-10-16T05:04:53.508Z,1.08
2022-10-16T05:07:19.828Z,1.50
2022-10-16T05:09:46.227Z,1.50
2022-10-16T05:12:12.546Z,1.42
2022-10-16T05:14:38.896Z,1.48
2022-10-16T05:17:05.542Z,1.27
2022-10-16T05:19:31.887Z,1.40
2022-10-16T05:21:58.356Z,1.00
2022-10-16T05:24:24.719Z,1.60
2022-10-16T05:26:51.468Z,1.52
2022-10-16T05:29:17.981Z,1.42
2022-10-16T05:31:44.394Z,1.80
2022-10-16T05:34:10.908Z,2.15
2022-10-16T05:36:37.361Z,1.50
2022-10-16T05:39:03.903Z,2.70
2022-10-16T05:41:30.246Z,1.60
2022-10-16T05:43:56.615Z,1.75
2022-10-16T05:46:23.045Z,2.00
2022-10-16T05:48:49.344Z,1.90
2022-10-16T05:51:16.256Z,2.20
2022-10-16T05:56:14.412Z,1.90
2022-10-16T05:58:45.216Z,2.40
2022-10-16T06:01:14.388Z,2.38
2022-10-16T06:03:41.048Z,2.22
2022-10-16T06:06:13.416Z,2.33
2022-10-16T06:08:40.907Z,2.15
2022-10-16T06:11:10.851Z,1.95
2022-10-16T06:13:38.113Z,2.65
2022-10-16T06:16:05.188Z,1.80
2022-10-16T06:18:32.040Z,2.63
2022-10-16T06:20:59.917Z,2.28
2022-10-16T06:23:26.522Z,2.17
2022-10-16T06:25:52.894Z,2.10
2022-10-16T06:28:19.377Z,2.33
2022-10-16T06:30:46.599Z,3.03
2022-10-16T06:33:13.186Z,2.80
2022-10-16T06:35:39.510Z,3.45
2022-10-16T06:38:05.835Z,2.80
2022-10-16T06:40:32.170Z,3.10
2022-10-16T06:42:58.570Z,2.72
2022-10-16T06:45:24.917Z,3.05
2022-10-16T06:47:51.229Z,3.08
2022-10-16T06:50:17.566Z,3.63
2022-10-16T06:52:43.864Z,3.38
2022-10-16T06:55:10.246Z,3.20
2022-10-16T06:57:36.578Z,3.20
2022-10-16T07:00:04.324Z,3.03
2022-10-16T07:02:30.642Z,3.30
2022-10-16T07:04:57.870Z,3.10
2022-10-16T07:07:25.695Z,3.10
2022-10-16T07:09:52.041Z,2.97
2022-10-16T07:12:18.748Z,2.90
2022-10-16T07:14:45.061Z,2.67
2022-10-16T07:17:11.381Z,3.25
2022-10-16T07:19:37.944Z,3.03
2022-10-16T07:22:04.358Z,3.13
2022-10-16T07:24:30.746Z,3.08
2022-10-16T07:26:57.111Z,3.28
2022-10-16T07:29:23.485Z,2.70
2022-10-16T07:31:50.722Z,3.25
2022-10-16T07:34:18.857Z,3.25
2022-10-16T07:36:45.423Z,2.83
2022-10-16T07:39:11.799Z,2.92
2022-10-16T07:41:38.237Z,3.30
2022-10-16T07:44:05.275Z,2.15
2022-10-16T07:46:31.897Z,2.58
2022-10-16T07:48:58.379Z,2.78
2022-10-16T07:51:26.442Z,3.47
2022-10-16T07:53:53.847Z,2.97
2022-10-16T07:56:21.413Z,3.47
2022-10-16T07:58:50.234Z,3.00
2022-10-16T08:01:18.266Z,3.28
2022-10-16T08:03:46.422Z,3.10
2022-10-16T08:06:12.852Z,3.55
2022-10-16T08:08:39.392Z,3.50
2022-10-16T08:11:05.862Z,3.15
2022-10-16T08:13:32.693Z,3.28
2022-10-16T08:15:59.060Z,3.38
2022-10-16T08:18:25.651Z,3.83
2022-10-16T08:21:01.295Z,3.60
2022-10-16T08:23:28.843Z,3.80
2022-10-16T08:25:56.612Z,3.65
2022-10-16T08:28:24.091Z,3.58
2022-10-16T08:30:50.791Z,3.35
2022-10-16T08:33:17.145Z,3.90
2022-10-16T08:35:43.470Z,3.25
2022-10-16T08:38:10.379Z,3.08
2022-10-16T08:40:38.116Z,2.95
2022-10-16T08:43:15.966Z,3.10
2022-10-16T08:45:48.379Z,3.28
2022-10-16T08:48:28.566Z,3.70
2022-10-16T08:50:55.150Z,3.78
2022-10-16T08:53:36.485Z,3.30
2022-10-16T08:56:03.764Z,3.97
2022-10-16T08:58:31.611Z,3.72
2022-10-16T09:01:01.429Z,3.75
2022-10-16T09:03:47.473Z,4.18
2022-10-16T09:06:38.675Z,4.05
2022-10-16T09:09:29.894Z,4.17
2022-10-16T09:12:04.524Z,3.50
2022-10-16T09:14:41.313Z,3.10
2022-10-16T09:17:29.959Z,3.08
2022-10-16T09:20:27.203Z,3.28
2022-10-16T09:23:05.567Z,2.78
2022-10-16T09:25:33.464Z,2.80
2022-10-16T09:27:59.820Z,1.80
2022-10-16T09:30:30.374Z,1.50
2022-10-16T09:32:59.083Z,2.10
2022-10-16T09:35:36.199Z,1.70
2022-10-16T09:38:02.579Z,1.73
2022-10-16T09:40:37.670Z,1.50
2022-10-16T09:43:22.256Z,1.52
2022-10-16T09:46:00.285Z,1.33
2022-10-16T09:48:32.839Z,1.48
2022-10-16T09:51:03.593Z,1.58
2022-10-16T09:54:00.961Z,2.30
2022-10-16T09:56:30.344Z,2.35
2022-10-16T09:58:59.240Z,2.00
2022-10-16T10:01:39.160Z,2.40
2022-10-16T10:04:06.407Z,1.80
2022-10-16T10:06:38.798Z,1.60
2022-10-16T10:09:21.290Z,1.55
2022-10-16T10:11:52.723Z,1.50
2022-10-16T10:14:28.283Z,1.95
2022-10-16T10:17:05.637Z,1.75
2022-10-16T10:19:55.961Z,1.42
2022-10-16T10:22:46.630Z,1.55
2022-10-16T10:25:13.201Z,1.95
2022-10-16T10:27:45.568Z,1.48
2022-10-16T10:30:23.255Z,1.42
2022-10-16T10:33:02.754Z,3.90
2022-10-16T10:35:44.798Z,2.20
2022-10-16T10:38:45.025Z,1.55
2022-10-16T10:41:31.440Z,1.17
2022-10-16T10:44:19.369Z,1.20
2022-10-16T10:46:57.226Z,1.70
2022-10-16T10:49:53.583Z,1.40
2022-10-16T10:52:34.837Z,1.20
2022-10-16T10:55:01.101Z,1.50
2022-10-16T10:57:46.822Z,1.63
2022-10-16T11:00:19.199Z,1.00
2022-10-16T11:03:10.151Z,1.20
2022-10-16T11:05:52.389Z,1.17
2022-10-16T11:08:33.042Z,1.10
2022-10-16T11:11:03.271Z,1.42
2022-10-16T11:13:36.783Z,1.23
2022-10-16T11:16:15.269Z,1.73
2022-10-16T11:19:14.106Z,4.10
2022-10-16T11:22:04.773Z,1.88
2022-10-16T11:25:03.833Z,1.45
2022-10-16T11:27:44.837Z,1.30
2022-10-16T11:30:21.769Z,1.20
2022-10-16T11:33:09.826Z,1.05
2022-10-16T11:35:44.090Z,1.33
2022-10-16T11:38:16.809Z,1.23
2022-10-16T11:40:48.736Z,1.52
2022-10-16T11:43:22.943Z,1.10
2022-10-16T11:46:06.465Z,0.90
2022-10-16T11:48:51.031Z,0.80
2022-10-16T11:51:45.457Z,1.20
2022-10-16T11:54:29.962Z,0.80
2022-10-16T11:57:02.164Z,0.80
2022-10-16T11:59:44.664Z,0.70
2022-10-16T12:02:34.981Z,3.78
2022-10-16T12:05:26.034Z,0.80
2022-10-16T12:07:58.825Z,1.00
2022-10-16T12:10:32.727Z,0.70
2022-10-16T12:12:59.227Z,0.95
2022-10-16T12:15:54.076Z,0.95
2022-10-16T12:18:25.905Z,0.82
2022-10-16T12:21:07.006Z,0.70
2022-10-16T12:23:37.815Z,0.70
2022-10-16T12:26:04.927Z,0.80
2022-10-16T12:28:33.918Z,0.82
2022-10-16T12:31:03.284Z,1.10
2022-10-16T12:34:01.784Z,0.73
2022-10-16T12:36:35.271Z,0.93
2022-10-16T12:39:02.943Z,0.80
2022-10-16T12:41:38.885Z,0.70
2022-10-16T12:44:05.392Z,0.52
2022-10-16T12:46:31.682Z,0.43
2022-10-16T12:49:13.026Z,0.60
2022-10-16T12:51:40.370Z,0.50
2022-10-16T12:54:19.293Z,0.60
2022-10-16T12:57:18.084Z,0.45
2022-10-16T13:00:01.096Z,0.80
2022-10-16T13:02:45.391Z,0.50
2022-10-16T13:05:11.797Z,0.50
2022-10-16T13:08:02.894Z,0.68
2022-10-16T13:10:49.062Z,0.70
2022-10-16T13:13:45.133Z,0.45
2022-10-16T13:16:20.250Z,0.57
2022-10-16T13:18:56.683Z,0.50
2022-10-16T13:21:39.675Z,0.70
2022-10-16T13:24:33.955Z,0.43
2022-10-16T13:27:47.573Z,0.88
2022-10-16T13:30:20.235Z,0.80
2022-10-16T13:35:23.028Z,0.55
2022-10-16T13:37:49.594Z,0.47
2022-10-16T13:40:24.402Z,0.47
2022-10-16T13:42:53.763Z,0.60
2022-10-16T13:45:26.747Z,0.70
2022-10-16T13:48:03.894Z,0.60
2022-10-16T13:50:30.305Z,0.68
2022-10-16T13:53:07.229Z,0.60
2022-10-16T13:55:34.280Z,0.40
2022-10-16T13:58:13.860Z,0.60
2022-10-16T14:00:41.057Z,0.45
2022-10-16T14:03:16.203Z,0.95
2022-10-16T14:05:51.072Z,1.17
2022-10-16T14:08:17.833Z,0.70
2022-10-16T14:10:49.673Z,0.80
2022-10-16T14:15:48.975Z,0.73
2022-10-16T14:18:21.612Z,0.60
2022-10-16T14:20:49.844Z,1.05
2022-10-16T14:23:21.512Z,0.77
2022-10-16T14:25:48.107Z,0.60
2022-10-16T14:28:14.403Z,1.63
2022-10-16T14:30:50.508Z,2.55
2022-10-16T14:33:37.533Z,2.20
2022-10-16T14:36:09.816Z,2.03
2022-10-16T14:38:37.528Z,1.77
2022-10-16T14:41:04.999Z,2.40
2022-10-16T14:43:43.006Z,2.22
2022-10-16T14:46:19.003Z,1.17
2022-10-16T14:48:49.762Z,1.90
2022-10-16T14:51:20.276Z,1.55
2022-10-16T14:53:48.081Z,1.20
2022-10-16T14:56:20.390Z,0.90
2022-10-16T14:58:47.243Z,1.20
2022-10-16T15:01:13.967Z,1.27
2022-10-16T15:03:40.493Z,1.75
2022-10-16T15:06:13.435Z,3.22
2022-10-16T15:08:40.677Z,2.65
2022-10-16T15:11:13.315Z,2.60
2022-10-16T15:13:39.830Z,2.67
2022-10-16T15:16:08.391Z,2.50
2022-10-16T15:18:34.823Z,2.05
2022-10-16T15:21:01.270Z,2.40
2022-10-16T15:23:27.654Z,2.53
2022-10-16T15:25:55.661Z,2.10
2022-10-16T15:28:24.108Z,1.90
2022-10-16T15:30:52.172Z,1.63
2022-10-16T15:33:20.745Z,1.55
2022-10-16T15:35:48.771Z,2.53
2022-10-16T15:38:16.239Z,1.25
2022-10-16T15:40:42.593Z,1.27
2022-10-16T15:43:09.787Z,0.98
2022-10-16T15:45:36.166Z,0.77
2022-10-16T15:48:02.718Z,1.58
2022-10-16T15:50:29.115Z,1.60
2022-10-16T15:52:55.459Z,1.13
2022-10-16T15:55:21.821Z,0.90
2022-10-16T15:57:48.185Z,1.00
2022-10-16T16:00:22.821Z,0.70
2022-10-16T16:02:55.402Z,1.40
2022-10-16T16:05:23.072Z,1.10
2022-10-16T16:07:50.319Z,1.08
2022-10-16T16:10:16.962Z,0.80
2022-10-16T16:12:43.376Z,1.13
2022-10-16T16:15:10.789Z,1.38
2022-10-16T16:17:37.581Z,1.30
2022-10-16T16:20:05.602Z,1.40
2022-10-16T16:22:32.042Z,1.27
2022-10-16T16:24:58.419Z,1.38
2022-10-16T16:27:26.317Z,1.25
2022-10-16T16:29:54.198Z,1.38
2022-10-16T16:32:20.562Z,1.05
2022-10-16T16:34:47.039Z,1.20
2022-10-16T16:37:13.513Z,0.90
2022-10-16T16:39:40.155Z,1.02
2022-10-16T16:42:08.364Z,0.90
2022-10-16T16:44:37.058Z,1.00
2022-10-16T16:47:05.076Z,1.17
2022-10-16T16:49:31.564Z,1.15
2022-10-16T16:51:58.097Z,1.08
2022-10-16T16:54:24.596Z,0.90
2022-10-16T16:56:50.984Z,1.10
2022-10-16T16:59:20.777Z,1.20
2022-10-16T17:01:49.144Z,1.30
2022-10-16T17:04:17.359Z,1.30
2022-10-16T17:06:44.296Z,1.95
2022-10-16T17:09:14.054Z,2.00
2022-10-16T17:11:42.449Z,8.93
2022-10-16T17:14:09.083Z,3.83
2022-10-16T17:16:37.922Z,3.80
2022-10-16T17:19:07.188Z,3.00
2022-10-16T17:21:34.569Z,1.80
2022-10-16T17:24:01.779Z,2.47
2022-10-16T17:26:28.937Z,2.17
2022-10-16T17:28:57.529Z,2.53
2022-10-16T17:31:29.705Z,2.72
2022-10-16T17:33:56.519Z,3.03
2022-10-16T17:36:23.443Z,2.40
2022-10-16T17:38:50.296Z,2.40
2022-10-16T17:41:23.094Z,2.10
2022-10-16T17:43:50.241Z,2.10
2022-10-16T17:46:18.674Z,2.25
2022-10-16T17:48:48.563Z,2.10
2022-10-16T17:51:18.459Z,3.28
2022-10-16T17:53:52.002Z,1.90
2022-10-16T17:56:19.032Z,2.45
2022-10-16T17:58:51.567Z,2.20
2022-10-16T18:01:26.909Z,2.42
2022-10-16T18:03:58.872Z,2.30
2022-10-16T18:06:25.912Z,2.13
2022-10-16T18:08:53.621Z,2.00
2022-10-16T18:11:20.940Z,2.20
2022-10-16T18:13:47.645Z,2.00
2022-10-16T18:16:15.612Z,2.45
2022-10-16T18:18:44.694Z,2.05
2022-10-16T18:21:13.039Z,2.00
2022-10-16T18:23:40.506Z,2.35
2022-10-16T18:26:08.178Z,2.00
2022-10-16T18:28:34.930Z,2.22
2022-10-16T18:31:07.261Z,1.55
2022-10-16T18:33:34.476Z,2.45
2022-10-16T18:36:06.371Z,1.52
2022-10-16T18:38:33.521Z,1.98
2022-10-16T18:41:05.474Z,1.70
2022-10-16T18:43:33.222Z,1.58
2022-10-16T18:46:11.044Z,1.20
2022-10-16T18:48:37.982Z,1.60
2022-10-16T18:51:09.594Z,1.83
2022-10-16T18:53:38.007Z,2.10
2022-10-16T18:56:05.006Z,1.50
2022-10-16T18:58:31.896Z,1.55
2022-10-16T19:01:04.619Z,1.30
2022-10-16T19:03:31.605Z,1.67
2022-10-16T19:06:06.961Z,1.60
2022-10-16T19:08:33.773Z,1.70
2022-10-16T19:11:08.112Z,1.65
2022-10-16T19:13:35.042Z,1.67
2022-10-16T19:16:23.187Z,1.45
2022-10-16T19:18:53.654Z,1.45
2022-10-16T19:21:20.494Z,2.78
2022-10-16T19:23:50.740Z,2.10
2022-10-16T19:26:17.741Z,1.67
2022-10-16T19:28:45.112Z,2.00
2022-10-16T19:31:18.455Z,2.20
2022-10-16T19:33:45.663Z,2.00
2022-10-16T19:36:15.163Z,1.70
2022-10-16T19:38:42.288Z,1.48
2022-10-16T19:41:14.551Z,1.67
2022-10-16T19:43:41.902Z,1.63
2022-10-16T19:46:14.013Z,1.48
2022-10-16T19:48:40.601Z,1.63
2022-10-16T19:51:10.632Z,1.70
2022-10-16T19:53:37.048Z,1.65
2022-10-16T19:56:18.619Z,1.35
2022-10-16T19:58:46.281Z,1.90
2022-10-16T20:01:14.623Z,2.33
2022-10-16T20:03:43.177Z,2.05
2022-10-16T20:06:09.993Z,1.70
2022-10-16T20:08:38.908Z,2.03
2022-10-16T20:11:07.021Z,2.03
2022-10-16T20:13:36.204Z,1.80
2022-10-16T20:16:06.037Z,2.03
2022-10-16T20:18:32.947Z,1.60
2022-10-16T20:20:59.420Z,1.65
2022-10-16T20:23:25.816Z,1.85
2022-10-16T20:25:52.957Z,2.20
2022-10-16T20:28:22.054Z,2.17
2022-10-16T20:30:50.037Z,1.90
2022-10-16T20:33:17.875Z,2.50
2022-10-16T20:35:46.809Z,1.55
2022-10-16T20:38:14.898Z,1.90
2022-10-16T20:40:44.061Z,1.70
2022-10-16T20:43:16.242Z,1.88
2022-10-16T20:45:43.201Z,2.05
2022-10-16T20:48:13.633Z,2.20
2022-10-16T20:50:41.378Z,2.35
2022-10-16T20:53:08.916Z,2.22
2022-10-16T20:55:37.250Z,2.20
2022-10-16T20:58:05.219Z,2.17
2022-10-16T21:00:31.849Z,2.40
2022-10-16T21:02:58.298Z,2.70
2022-10-16T21:05:28.602Z,2.58
2022-10-16T21:07:55.512Z,2.42
2022-10-16T21:10:22.595Z,1.80
2022-10-16T21:12:54.044Z,2.25
2022-10-16T21:15:20.509Z,2.78
2022-10-16T21:17:46.922Z,2.70
2022-10-16T21:20:13.346Z,2.30
2022-10-16T21:22:39.722Z,2.78
2022-10-16T21:25:06.764Z,2.20
2022-10-16T21:27:40.202Z,2.08
2022-10-16T21:30:09.503Z,2.80
2022-10-16T21:32:37.453Z,2.75
2022-10-16T21:35:04.227Z,2.80
2022-10-16T21:37:31.036Z,3.28
2022-10-16T21:39:57.481Z,3.05
2022-10-16T21:42:23.855Z,2.90
2022-10-16T21:44:50.251Z,3.13
2022-10-16T21:47:16.570Z,2.67
2022-10-16T21:49:42.877Z,3.03
2022-10-16T21:52:09.363Z,3.42
2022-10-16T21:54:35.806Z,2.80
2022-10-16T21:57:02.137Z,2.47
2022-10-16T21:59:28.549Z,2.60
2022-10-16T22:01:55.511Z,2.78
2022-10-16T22:04:22.390Z,3.03
2022-10-16T22:06:48.899Z,2.40
2022-10-16T22:09:15.903Z,2.90
2022-10-16T22:11:44.812Z,2.88
2022-10-16T22:14:16.886Z,2.53
2022-10-16T22:16:43.831Z,2.25
2022-10-16T22:19:11.993Z,3.10
2022-10-16T22:21:40.308Z,2.53
2022-10-16T22:24:08.341Z,2.45
2022-10-16T22:26:35.349Z,2.58
2022-10-16T22:29:02.060Z,2.78
2022-10-16T22:31:28.537Z,2.22
2022-10-16T22:33:56.593Z,2.72
2022-10-16T22:36:23.559Z,3.50
2022-10-16T22:38:50.086Z,2.60
2022-10-16T22:41:16.911Z,2.38
2022-10-16T22:43:45.863Z,3.08
2022-10-16T22:46:14.136Z,2.35
2022-10-16T22:48:40.904Z,2.28
2022-10-16T22:51:08.061Z,2.50
2022-10-16T22:53:34.459Z,2.33
2022-10-16T22:56:01.027Z,2.28
2022-10-16T22:58:27.597Z,2.40
2022-10-16T23:00:53.999Z,2.38
2022-10-16T23:03:20.410Z,2.33
2022-10-16T23:05:46.896Z,2.30
2022-10-16T23:08:13.645Z,2.10
2022-10-16T23:10:46.111Z,2.53
2022-10-16T23:13:13.529Z,2.40
2022-10-16T23:15:41.214Z,1.88
2022-10-16T23:18:08.290Z,2.70
2022-10-16T23:20:35.019Z,2.55
2022-10-16T23:23:01.549Z,2.72
2022-10-16T23:25:27.868Z,2.38
2022-10-16T23:27:55.282Z,2.30
2022-10-16T23:30:22.031Z,2.25
2022-10-16T23:32:48.612Z,2.55
2022-10-16T23:35:15.285Z,2.50
2022-10-16T23:37:41.611Z,2.85
2022-10-16T23:40:08.157Z,2.40
2022-10-16T23:42:34.859Z,2.75
2022-10-16T23:45:01.256Z,2.40
2022-10-16T23:47:27.949Z,2.45
2022-10-16T23:49:54.492Z,2.47
2022-10-16T23:52:20.835Z,2.63
2022-10-16T23:54:47.147Z,2.58
2022-10-16T23:57:13.492Z,3.05
2022-10-16T23:59:39.833Z,2.47
